Time;durP1;ratioP1;P1;durP2;ratioP2;P2;SDS_P1;SDS_P2;PMS_P1;PMS_P2;Temp;Humidity;BMP_temperature;BMP_pressure;BME280_temperature;BME280_humidity;BME280_pressure;Samples;Min_cycle;Max_cycle;Signal;HPM_P1;HPM_P2
2022/09/01 00:01:44;;;;;;;2.15;0.80;;;;;;;14.00;73.82;101676.97;6041725;28;20438;-63
2022/09/01 00:04:42;;;;;;;2.47;0.80;;;;;;;14.14;73.93;101663.16;6038734;28;20035;-63
2022/09/01 00:07:37;;;;;;;2.38;0.82;;;;;;;14.15;72.32;101660.38;6047433;28;20038;-63
2022/09/01 00:10:32;;;;;;;2.17;0.80;;;;;;;14.17;72.28;101658.38;6047543;28;20042;-64
2022/09/01 00:13:32;;;;;;;4.20;0.98;;;;;;;14.15;73.24;101665.72;6063721;28;20026;-63
2022/09/01 00:16:29;;;;;;;1.70;0.75;;;;;;;14.21;74.40;101665.09;6048085;28;20095;-63
2022/09/01 00:19:25;;;;;;;1.52;0.82;;;;;;;14.18;74.49;101662.75;6048464;28;20037;-64
2022/09/01 00:22:20;;;;;;;1.55;0.70;;;;;;;13.88;74.07;101660.31;6047682;28;20084;-64
2022/09/01 00:25:17;;;;;;;1.67;1.00;;;;;;;13.94;74.62;101659.72;6047921;28;20114;-64
2022/09/01 00:28:13;;;;;;;1.13;0.73;;;;;;;13.85;75.14;101665.09;6048169;28;20545;-64
2022/09/01 00:31:09;;;;;;;1.63;0.90;;;;;;;14.01;75.19;101657.31;6047437;28;20040;-63
2022/09/01 00:34:05;;;;;;;1.48;1.00;;;;;;;13.73;74.89;101651.91;6047969;28;20283;-64
2022/09/01 00:37:00;;;;;;;1.67;0.80;;;;;;;13.48;75.43;101670.34;6043182;28;20041;-64
2022/09/01 00:39:55;;;;;;;1.52;0.90;;;;;;;12.94;76.63;101671.66;6047877;28;20025;-63
2022/09/01 00:42:52;;;;;;;1.53;0.80;;;;;;;12.72;77.83;101681.72;6043819;28;20034;-64
2022/09/01 00:45:48;;;;;;;2.35;0.90;;;;;;;12.44;78.70;101667.34;6040467;28;20032;-64
2022/09/01 00:48:44;;;;;;;1.90;0.93;;;;;;;12.49;79.26;101665.09;6046507;28;20462;-64
2022/09/01 00:51:42;;;;;;;3.50;1.00;;;;;;;12.29;79.97;101668.66;6046690;28;20032;-63
2022/09/01 00:54:41;;;;;;;2.40;0.82;;;;;;;12.24;80.07;101677.03;6046663;28;20026;-63
2022/09/01 00:57:36;;;;;;;1.52;0.80;;;;;;;12.06;80.81;101678.66;6045809;28;20037;-63
2022/09/01 01:00:39;;;;;;;1.80;0.90;;;;;;;12.11;80.85;101670.25;6043543;28;20467;-64
2022/09/01 01:03:35;;;;;;;1.42;0.95;;;;;;;11.93;81.49;101665.53;6047470;28;20037;-62
2022/09/01 01:06:31;;;;;;;3.78;1.10;;;;;;;12.19;82.03;101678.41;6047062;28;20036;-64
2022/09/01 01:09:31;;;;;;;2.38;0.98;;;;;;;12.74;80.38;101680.59;6046652;28;20520;-63
2022/09/01 01:12:29;;;;;;;2.03;1.10;;;;;;;13.01;79.76;101666.63;6060734;28;20122;-63
2022/09/01 01:15:24;;;;;;;2.10;1.13;;;;;;;12.74;79.08;101661.97;6042673;28;20038;-64
2022/09/01 01:18:20;;;;;;;2.07;1.00;;;;;;;12.91;80.18;101655.97;6040190;28;20068;-63
2022/09/01 01:24:44;;;;;;;3.03;1.50;;;;;;;13.05;78.43;101657.38;6059607;28;20148;-64
2022/09/01 01:27:41;;;;;;;2.30;0.80;;;;;;;12.82;79.64;101651.47;6044530;28;20049;-63
2022/09/01 01:30:43;;;;;;;2.60;1.40;;;;;;;12.71;79.79;101669.38;6046192;28;20048;-63
2022/09/01 01:33:49;;;;;;;2.75;1.30;;;;;;;12.88;80.26;101650.91;6045157;28;20041;-63
2022/09/01 01:36:46;;;;;;;2.63;1.20;;;;;;;12.72;80.78;101665.75;6045605;28;20083;-63
2022/09/01 01:39:43;;;;;;;2.85;1.25;;;;;;;12.75;80.27;101665.44;6045767;28;20030;-63
2022/09/01 01:42:38;;;;;;;2.25;1.27;;;;;;;12.75;79.89;101660.97;6046577;28;20037;-63
2022/09/01 01:45:34;;;;;;;5.10;1.27;;;;;;;12.91;79.40;101663.94;6043129;28;20116;-63
2022/09/01 01:48:33;;;;;;;3.75;1.15;;;;;;;12.95;79.69;101648.53;6045252;28;20029;-64
2022/09/01 01:51:31;;;;;;;16.30;1.73;;;;;;;13.09;79.41;101664.16;6040190;28;20474;-64
2022/09/01 01:54:31;;;;;;;5.30;0.93;;;;;;;12.63;79.36;101662.06;6031953;28;20101;-63
2022/09/01 01:57:30;;;;;;;2.38;0.93;;;;;;;12.44;80.43;101668.19;6032166;28;20026;-64
2022/09/01 02:00:31;;;;;;;2.22;1.15;;;;;;;12.20;80.71;101672.94;6045688;28;20488;-64
2022/09/01 02:03:35;;;;;;;2.33;1.00;;;;;;;12.32;82.09;101663.06;6046416;28;20466;-63
2022/09/01 02:06:33;;;;;;;4.72;1.27;;;;;;;12.35;81.48;101660.16;6045280;28;20038;-64
2022/09/01 02:09:28;;;;;;;1.95;1.10;;;;;;;12.48;80.72;101663.41;6046153;28;20026;-64
2022/09/01 02:12:24;;;;;;;2.23;1.07;;;;;;;12.47;81.60;101672.41;6045293;28;20382;-63
2022/09/01 02:15:19;;;;;;;1.33;0.90;;;;;;;12.43;81.34;101671.81;6045776;28;20116;-63
2022/09/01 02:18:18;;;;;;;1.77;1.07;;;;;;;12.16;80.79;101662.72;6044720;28;20672;-63
2022/09/01 02:21:18;;;;;;;2.88;1.10;;;;;;;12.04;82.05;101677.09;6043587;28;20578;-62
2022/09/01 02:24:14;;;;;;;2.85;1.13;;;;;;;11.85;82.90;101683.97;6035888;28;20142;-64
2022/09/01 02:27:09;;;;;;;1.60;0.90;;;;;;;11.52;83.84;101668.19;6045234;28;20034;-63
2022/09/01 02:30:09;;;;;;;3.03;1.00;;;;;;;11.33;84.82;101690.09;6045010;28;20030;-63
2022/09/01 02:33:04;;;;;;;1.13;1.00;;;;;;;11.04;85.63;101682.84;6044305;28;20772;-63
2022/09/01 02:36:03;;;;;;;1.88;0.90;;;;;;;11.01;86.65;101678.63;6045470;28;20046;-63
2022/09/01 02:38:58;;;;;;;2.60;1.10;;;;;;;10.79;87.85;101669.91;6040780;28;20034;-63
2022/09/01 02:41:54;;;;;;;1.40;1.00;;;;;;;10.57;88.64;101663.66;6031758;28;20038;-64
2022/09/01 02:44:49;;;;;;;2.88;1.05;;;;;;;10.48;89.04;101679.47;6043069;28;20041;-64
2022/09/01 02:47:47;;;;;;;4.17;1.17;;;;;;;10.38;89.75;101674.03;6036498;28;20038;-64
2022/09/01 02:50:42;;;;;;;1.70;1.10;;;;;;;10.40;89.90;101661.53;6044723;28;20747;-63
2022/09/01 02:53:38;;;;;;;1.17;0.90;;;;;;;10.29;89.92;101664.19;6044521;28;20030;-63
2022/09/01 02:56:33;;;;;;;1.48;1.10;;;;;;;10.23;90.97;101648.75;6045645;28;20072;-64
2022/09/01 02:59:29;;;;;;;2.00;1.02;;;;;;;10.42;90.85;101664.03;6044625;28;20048;-64
2022/09/01 03:02:27;;;;;;;2.65;1.30;;;;;;;10.25;90.48;101636.22;6045082;28;20066;-64
2022/09/01 03:05:25;;;;;;;2.38;0.98;;;;;;;10.53;90.99;101643.66;6049701;28;20026;-64
2022/09/01 03:08:24;;;;;;;3.72;1.20;;;;;;;10.70;90.58;101648.47;6049729;28;20029;-65
2022/09/01 03:11:22;;;;;;;1.70;1.05;;;;;;;10.69;89.56;101645.91;6048997;28;20049;-63
2022/09/01 03:14:18;;;;;;;3.70;1.20;;;;;;;10.47;89.93;101638.84;6036465;28;20041;-64
2022/09/01 03:17:14;;;;;;;3.13;0.93;;;;;;;10.44;90.74;101647.03;6049926;28;20037;-63
2022/09/01 03:20:10;;;;;;;2.30;1.30;;;;;;;10.50;90.17;101641.25;6049375;28;20470;-63
2022/09/01 03:23:07;;;;;;;2.70;1.10;;;;;;;10.57;90.71;101650.41;6048487;28;20117;-64
2022/09/01 03:26:03;;;;;;;2.53;1.20;;;;;;;10.71;90.16;101650.13;6046738;28;20034;-64
2022/09/01 03:28:58;;;;;;;2.58;1.20;;;;;;;10.64;90.16;101659.56;6049551;28;20060;-64
2022/09/01 03:31:53;;;;;;;1.40;1.00;;;;;;;10.38;91.09;101662.63;6047202;28;20482;-64
2022/09/01 03:34:50;;;;;;;1.88;1.00;;;;;;;10.51;91.79;101644.75;6049318;28;20064;-62
2022/09/01 03:37:45;;;;;;;4.07;1.50;;;;;;;10.73;91.96;101653.50;6049415;28;20038;-64
2022/09/01 03:40:40;;;;;;;4.72;1.30;;;;;;;11.13;91.06;101668.84;6047989;28;20478;-62
2022/09/01 03:43:36;;;;;;;1.73;1.10;;;;;;;11.20;90.80;101656.72;6044414;28;20033;-65
2022/09/01 03:46:32;;;;;;;1.93;1.10;;;;;;;11.16;89.48;101652.66;6037312;28;20031;-63
2022/09/01 03:49:28;;;;;;;3.58;1.33;;;;;;;11.40;89.43;101661.25;6049241;28;20029;-63
2022/09/01 03:52:24;;;;;;;2.13;1.10;;;;;;;10.99;89.20;101664.66;6040932;28;20042;-63
2022/09/01 03:55:22;;;;;;;1.75;1.13;;;;;;;11.18;89.73;101664.00;6036275;28;20073;-64
2022/09/01 03:58:18;;;;;;;2.15;1.17;;;;;;;11.24;89.70;101659.03;6049145;28;20562;-64
2022/09/01 04:01:17;;;;;;;1.77;1.10;;;;;;;11.32;90.01;101653.06;6047988;28;20042;-64
2022/09/01 04:04:13;;;;;;;4.57;1.67;;;;;;;11.25;89.70;101649.25;6039110;28;20335;-63
2022/09/01 04:07:08;;;;;;;2.08;1.25;;;;;;;11.43;90.65;101652.19;6048894;28;20030;-63
2022/09/01 04:10:04;;;;;;;3.03;1.50;;;;;;;11.46;89.66;101644.81;6047701;28;20026;-63
2022/09/01 04:13:01;;;;;;;2.22;1.50;;;;;;;11.56;89.77;101659.00;6046114;28;20096;-64
2022/09/01 04:15:57;;;;;;;2.60;1.42;;;;;;;11.50;89.37;101658.66;6048262;28;20041;-64
2022/09/01 04:18:52;;;;;;;3.85;1.55;;;;;;;11.51;88.71;101644.41;6048377;28;20034;-64
2022/09/01 04:21:49;;;;;;;2.53;1.40;;;;;;;11.45;88.40;101651.06;6047734;28;20040;-63
2022/09/01 04:24:45;;;;;;;2.58;1.50;;;;;;;11.68;88.03;101639.38;6038956;28;20528;-64
2022/09/01 04:27:40;;;;;;;1.73;1.20;;;;;;;11.57;88.22;101649.22;6029940;28;20090;-64
2022/09/01 04:30:39;;;;;;;2.38;1.25;;;;;;;11.42;87.87;101648.66;6047001;28;20030;-63
2022/09/01 04:33:38;;;;;;;3.80;1.73;;;;;;;11.25;88.84;101639.44;6043075;28;20053;-63
2022/09/01 04:36:36;;;;;;;2.35;1.40;;;;;;;11.24;89.45;101652.88;6047749;28;20445;-63
2022/09/01 04:39:31;;;;;;;1.75;1.30;;;;;;;11.35;89.89;101639.53;6035802;28;20504;-64
2022/09/01 04:42:28;;;;;;;4.47;1.67;;;;;;;11.34;89.44;101654.63;6047146;28;20065;-64
2022/09/01 04:45:28;;;;;;;3.38;1.58;;;;;;;11.36;90.27;101663.31;6046930;28;20400;-64
2022/09/01 04:48:24;;;;;;;3.80;2.08;;;;;;;11.53;90.01;101656.59;6047657;28;20117;-64
2022/09/01 04:51:20;;;;;;;2.67;1.70;;;;;;;11.52;89.75;101654.91;6046829;28;20683;-64
2022/09/01 04:54:16;;;;;;;2.97;1.50;;;;;;;11.58;89.14;101657.03;6047690;28;20030;-63
2022/09/01 04:57:12;;;;;;;2.75;1.50;;;;;;;11.53;89.75;101650.41;6062012;28;20124;-65
2022/09/01 05:00:21;;;;;;;3.50;1.40;;;;;;;11.37;89.95;101653.53;6046553;28;20099;-64
2022/09/01 05:03:20;;;;;;;3.40;1.60;;;;;;;11.54;89.48;101660.94;6047354;28;20033;-64
2022/09/01 05:06:17;;;;;;;2.13;1.30;;;;;;;11.71;88.96;101659.56;6046931;28;20070;-64
2022/09/01 05:09:12;;;;;;;2.55;1.48;;;;;;;11.96;88.00;101666.28;6047060;28;20073;-63
2022/09/01 05:12:10;;;;;;;3.60;1.40;;;;;;;11.94;86.91;101674.38;6045603;28;20038;-64
2022/09/01 05:15:08;;;;;;;3.95;1.45;;;;;;;11.67;87.14;101664.25;6046326;28;20026;-64
2022/09/01 05:18:08;;;;;;;2.08;1.30;;;;;;;11.63;87.45;101670.78;6033927;28;20108;-64
2022/09/01 05:21:08;;;;;;;2.97;1.30;;;;;;;11.73;87.72;101679.69;6046339;28;20461;-64
2022/09/01 05:24:04;;;;;;;2.90;1.40;;;;;;;11.96;87.24;101679.56;6046623;28;20037;-64
2022/09/01 05:26:59;;;;;;;2.85;1.50;;;;;;;12.09;86.84;101678.38;6045006;28;20458;-63
2022/09/01 05:29:54;;;;;;;3.63;1.53;;;;;;;12.40;84.96;101671.22;6046415;28;20033;-64
2022/09/01 05:32:52;;;;;;;2.27;1.30;;;;;;;12.78;84.32;101665.19;6045863;28;20597;-64
2022/09/01 05:35:54;;;;;;;4.68;1.70;;;;;;;12.87;83.66;101669.69;6046571;28;20038;-64
2022/09/01 05:38:51;;;;;;;2.28;1.45;;;;;;;12.98;83.35;101661.59;6046706;28;20038;-64
2022/09/01 05:41:48;;;;;;;2.45;1.38;;;;;;;13.23;82.20;101676.22;6044886;28;20148;-63
2022/09/01 05:44:43;;;;;;;2.45;1.40;;;;;;;13.94;78.95;101673.03;6046807;28;20025;-62
2022/09/01 05:47:40;;;;;;;3.20;1.50;;;;;;;13.41;79.87;101669.19;6038806;28;20092;-65
2022/09/01 05:50:41;;;;;;;2.25;1.30;;;;;;;13.82;78.99;101668.88;6033414;28;20072;-64
2022/09/01 05:53:37;;;;;;;2.67;1.40;;;;;;;14.25;77.72;101666.50;6043477;28;20034;-64
2022/09/01 05:56:32;;;;;;;2.45;1.15;;;;;;;14.20;76.45;101674.09;6035948;28;20846;-65
2022/09/01 05:59:32;;;;;;;1.77;1.20;;;;;;;13.95;77.87;101674.72;6045419;28;20088;-63
2022/09/01 06:02:27;;;;;;;2.45;1.35;;;;;;;13.72;78.61;101674.22;6045264;28;20034;-64
2022/09/01 06:05:24;;;;;;;3.55;1.60;;;;;;;13.67;79.49;101680.94;6046328;28;20038;-63
2022/09/01 06:08:22;;;;;;;3.67;1.30;;;;;;;14.06;78.22;101679.06;6045241;28;20045;-64
2022/09/01 06:11:18;;;;;;;4.05;1.58;;;;;;;14.02;78.13;101685.69;6046113;28;20077;-64
2022/09/01 06:14:14;;;;;;;5.85;1.70;;;;;;;13.92;79.04;101685.69;6046264;28;20034;-64
2022/09/01 06:17:10;;;;;;;4.45;1.70;;;;;;;14.29;77.21;101680.41;6044046;28;20492;-63
2022/09/01 06:20:09;;;;;;;3.05;1.50;;;;;;;14.35;77.13;101676.34;6045726;28;20030;-63
2022/09/01 06:23:05;;;;;;;3.65;1.50;;;;;;;14.50;77.28;101685.53;6043546;28;20334;-64
2022/09/01 06:26:02;;;;;;;3.60;1.58;;;;;;;14.55;76.84;101691.25;6045344;28;20030;-63
2022/09/01 06:29:04;;;;;;;2.35;1.58;;;;;;;14.81;76.13;101685.06;6034331;28;20053;-64
2022/09/01 06:32:01;;;;;;;3.60;1.45;;;;;;;15.77;72.19;101683.50;6037254;28;20478;-63
2022/09/01 06:34:59;;;;;;;3.30;1.33;;;;;;;16.02;70.91;101694.25;6040635;28;20044;-63
2022/09/01 06:37:55;;;;;;;2.45;1.30;;;;;;;16.04;70.93;101683.38;6050346;28;20037;-64
2022/09/01 06:41:03;;;;;;;2.47;1.52;;;;;;;16.55;68.63;101674.50;6034902;28;20081;-64
2022/09/01 06:44:00;;;;;;;2.53;0.98;;;;;;;16.24;69.20;101690.19;6044588;28;20141;-63
2022/09/01 06:46:55;;;;;;;3.03;1.45;;;;;;;15.70;72.33;101685.16;6046161;28;20458;-63
2022/09/01 06:49:53;;;;;;;2.27;1.03;;;;;;;15.48;73.27;101699.84;6045891;28;20033;-63
2022/09/01 06:53:00;;;;;;;2.42;1.38;;;;;;;15.81;70.48;101692.91;6040815;28;20038;-63
2022/09/01 06:55:55;;;;;;;2.38;1.40;;;;;;;15.47;72.56;101695.47;6036145;28;20722;-64
2022/09/01 06:58:52;;;;;;;3.38;1.30;;;;;;;15.73;70.59;101687.50;6045729;28;20034;-63
2022/09/01 07:01:50;;;;;;;4.90;1.27;;;;;;;15.76;70.10;101687.22;6038848;28;20065;-63
2022/09/01 07:04:45;;;;;;;1.45;0.95;;;;;;;16.03;69.77;101692.41;6036294;28;20034;-64
2022/09/01 07:07:41;;;;;;;5.88;1.00;;;;;;;16.02;68.01;101696.06;6048722;28;20041;-63
2022/09/01 07:10:43;;;;;;;3.97;1.60;;;;;;;15.92;67.88;101695.34;6048950;28;20050;-63
2022/09/01 07:13:39;;;;;;;2.60;1.08;;;;;;;16.34;67.17;101682.88;6033512;28;20042;-63
2022/09/01 07:16:38;;;;;;;1.60;0.83;;;;;;;16.45;65.68;101698.66;6037345;28;20038;-64
2022/09/01 07:19:34;;;;;;;1.98;1.00;;;;;;;16.69;65.06;101686.44;6049932;28;20033;-62
2022/09/01 07:22:29;;;;;;;4.15;0.90;;;;;;;16.87;63.84;101695.19;6049304;28;20038;-64
2022/09/01 07:25:24;;;;;;;1.13;0.73;;;;;;;17.00;61.72;101691.03;6049592;28;20424;-64
2022/09/01 07:28:22;;;;;;;1.07;0.57;;;;;;;17.18;59.83;101680.19;6043705;28;20065;-63
2022/09/01 07:31:24;;;;;;;2.65;0.90;;;;;;;17.38;59.23;101694.97;6041958;28;20033;-63
2022/09/01 07:34:20;;;;;;;2.83;1.10;;;;;;;17.48;58.53;101692.13;6042101;28;20042;-63
2022/09/01 07:37:17;;;;;;;2.08;0.80;;;;;;;17.34;56.56;101682.88;6044166;28;20084;-64
2022/09/01 07:40:19;;;;;;;0.73;0.52;;;;;;;17.60;55.90;101688.13;6047883;28;20127;-63
2022/09/01 07:43:23;;;;;;;1.90;0.60;;;;;;;17.88;54.85;101686.78;6045480;28;20037;-64
2022/09/01 07:46:19;;;;;;;4.97;0.70;;;;;;;17.97;54.27;101698.31;6043070;28;20455;-63
2022/09/01 07:49:15;;;;;;;3.05;0.70;;;;;;;17.87;54.77;101687.78;6048444;28;20037;-64
2022/09/01 07:52:11;;;;;;;1.40;0.70;;;;;;;18.15;53.76;101701.69;6048532;28;20037;-62
2022/09/01 07:55:09;;;;;;;1.52;0.60;;;;;;;18.54;52.73;101699.91;6034138;28;20061;-63
2022/09/01 07:58:05;;;;;;;2.03;0.65;;;;;;;18.36;53.11;101696.59;6049012;28;20087;-64
2022/09/01 08:01:01;;;;;;;1.73;0.70;;;;;;;18.71;52.31;101696.16;6048109;28;20034;-63
2022/09/01 08:03:58;;;;;;;0.68;0.40;;;;;;;18.90;51.65;101701.09;6040388;28;20378;-64
2022/09/01 08:06:54;;;;;;;1.10;0.70;;;;;;;18.67;51.44;101700.19;6057814;28;20042;-63
2022/09/01 08:09:50;;;;;;;0.70;0.40;;;;;;;19.05;50.22;101706.56;6034265;28;20030;-63
2022/09/01 08:12:45;;;;;;;0.87;0.57;;;;;;;19.25;50.06;101704.25;6040039;28;20049;-63
2022/09/01 08:15:40;;;;;;;1.60;0.40;;;;;;;19.38;48.59;101696.44;6046260;28;20882;-63
2022/09/01 08:18:36;;;;;;;2.20;0.60;;;;;;;19.29;49.64;101698.34;6043121;28;20053;-64
2022/09/01 08:21:31;;;;;;;1.93;0.60;;;;;;;19.46;48.45;101691.00;6047001;28;20030;-64
2022/09/01 08:24:26;;;;;;;2.85;0.50;;;;;;;19.62;48.26;101688.22;6048099;28;20065;-63
2022/09/01 08:27:21;;;;;;;2.13;0.53;;;;;;;19.93;47.76;101694.31;6041998;28;20131;-63
2022/09/01 08:30:17;;;;;;;0.90;0.50;;;;;;;20.24;46.79;101696.03;6036535;28;20034;-64
2022/09/01 08:33:13;;;;;;;0.65;0.40;;;;;;;20.42;45.38;101701.91;6037303;28;20482;-66
2022/09/01 08:36:10;;;;;;;1.95;0.60;;;;;;;20.14;45.35;101701.66;6047577;28;20624;-65
2022/09/01 08:39:06;;;;;;;1.70;0.63;;;;;;;20.26;45.67;101710.16;6046131;28;20037;-64
2022/09/01 08:42:10;;;;;;;5.30;0.60;;;;;;;20.47;44.75;101703.00;6047320;28;20087;-64
2022/09/01 08:45:20;;;;;;;0.60;0.50;;;;;;;20.46;44.06;101695.13;6037368;28;20087;-64
2022/09/01 08:48:27;;;;;;;1.60;0.65;;;;;;;20.55;43.68;101700.22;6038927;28;20027;-65
2022/09/01 08:51:42;;;;;;;0.40;0.38;;;;;;;20.66;43.33;101705.16;6033670;28;20510;-65
2022/09/01 08:54:43;;;;;;;1.20;0.60;;;;;;;20.83;42.72;101695.00;6040853;28;20033;-63
2022/09/01 08:57:42;;;;;;;2.53;0.40;;;;;;;20.62;42.65;101700.31;6038348;28;20041;-64
2022/09/01 09:00:42;;;;;;;1.15;0.73;;;;;;;20.57;43.30;101689.28;6031234;28;20081;-65
2022/09/01 09:04:05;;;;;;;1.33;0.50;;;;;;;20.61;43.54;101701.34;6039616;28;20034;-64
2022/09/01 09:07:19;;;;;;;1.63;0.60;;;;;;;20.57;43.51;101700.88;6043644;28;20056;-64
2022/09/01 09:10:22;;;;;;;0.80;0.60;;;;;;;20.79;43.24;101696.38;6040831;28;20104;-64
2022/09/01 09:13:30;;;;;;;1.35;0.55;;;;;;;21.20;42.38;101708.31;6041582;28;20069;-64
2022/09/01 09:16:55;;;;;;;1.55;0.60;;;;;;;21.02;40.79;101707.88;6032466;28;20859;-63
2022/09/01 09:19:50;;;;;;;0.68;0.30;;;;;;;21.10;41.87;101688.06;6025030;28;20792;-64
2022/09/01 09:22:47;;;;;;;1.30;0.70;;;;;;;22.06;40.23;101685.66;6035059;28;20038;-65
2022/09/01 09:25:42;;;;;;;1.80;0.50;;;;;;;21.86;39.78;101672.00;6041018;28;20034;-64
2022/09/01 09:28:39;;;;;;;4.10;0.70;;;;;;;22.09;40.15;101687.13;6040886;28;20076;-65
2022/09/01 09:31:44;;;;;;;1.67;0.60;;;;;;;22.20;39.67;101687.44;6033909;28;20370;-64
2022/09/01 09:34:41;;;;;;;1.42;0.57;;;;;;;21.83;40.01;101693.13;6042768;28;20034;-63
2022/09/01 09:37:36;;;;;;;2.58;0.60;;;;;;;21.49;40.04;101677.69;6039030;28;20041;-63
2022/09/01 09:40:32;;;;;;;2.07;0.60;;;;;;;21.88;39.83;101688.00;6041664;28;20474;-63
2022/09/01 09:43:29;;;;;;;2.47;0.55;;;;;;;21.79;39.92;101684.59;6038495;28;20030;-65
2022/09/01 09:46:30;;;;;;;0.82;0.50;;;;;;;21.87;39.23;101675.56;6039218;28;20084;-64
2022/09/01 09:49:28;;;;;;;1.85;0.73;;;;;;;22.15;37.83;101668.25;6045579;28;20034;-64
2022/09/01 09:52:24;;;;;;;1.23;0.63;;;;;;;22.07;36.05;101676.50;6032392;28;20041;-64
2022/09/01 09:55:23;;;;;;;3.57;0.77;;;;;;;21.79;37.34;101673.81;6045992;28;20037;-64
2022/09/01 09:58:25;;;;;;;0.90;0.50;;;;;;;22.25;35.82;101679.56;6034306;28;20042;-65
2022/09/01 10:01:24;;;;;;;1.38;0.40;;;;;;;22.24;34.94;101682.44;6021143;28;20026;-64
2022/09/01 10:04:36;;;;;;;3.45;0.73;;;;;;;22.41;35.12;101667.59;6022059;28;20062;-65
2022/09/01 10:07:35;;;;;;;3.35;0.60;;;;;;;22.28;35.76;101673.75;6043368;28;20519;-65
2022/09/01 10:10:40;;;;;;;5.05;0.88;;;;;;;22.00;37.04;101658.59;6045020;28;20033;-65
2022/09/01 10:13:35;;;;;;;2.40;0.65;;;;;;;22.14;37.09;101658.50;6044057;28;20561;-64
2022/09/01 10:16:32;;;;;;;3.17;0.50;;;;;;;22.04;37.21;101659.88;6031386;28;20096;-65
2022/09/01 10:19:29;;;;;;;1.90;0.60;;;;;;;22.33;36.89;101649.66;6044102;28;20114;-65
2022/09/01 10:22:24;;;;;;;2.25;0.60;;;;;;;22.82;35.96;101654.91;6035035;28;20037;-63
2022/09/01 10:25:25;;;;;;;2.43;0.50;;;;;;;22.56;35.66;101660.16;6044483;28;20057;-65
2022/09/01 10:28:23;;;;;;;1.23;0.60;;;;;;;22.19;35.96;101664.13;6044630;28;20335;-64
2022/09/01 10:31:20;;;;;;;3.58;0.63;;;;;;;22.41;36.08;101662.16;6043893;28;20095;-65
2022/09/01 10:34:16;;;;;;;1.50;0.70;;;;;;;22.37;36.97;101645.50;6044480;28;20030;-63
2022/09/01 10:37:13;;;;;;;1.08;0.60;;;;;;;22.84;34.96;101647.41;6043828;28;20037;-64
2022/09/01 10:40:11;;;;;;;0.90;0.50;;;;;;;22.35;35.90;101636.78;6032476;28;20034;-65
2022/09/01 10:43:43;;;;;;;1.60;0.55;;;;;;;22.91;35.94;101648.25;6045676;28;20034;-65
2022/09/01 10:46:44;;;;;;;1.80;0.60;;;;;;;23.13;36.13;101646.22;6043151;28;20498;-64
2022/09/01 10:49:45;;;;;;;2.95;0.40;;;;;;;23.34;35.84;101648.78;6044597;28;20034;-65
2022/09/01 10:52:41;;;;;;;1.23;0.45;;;;;;;23.04;36.16;101650.19;6041021;28;20066;-64
2022/09/01 10:55:44;;;;;;;1.00;0.50;;;;;;;23.26;36.16;101631.91;6038128;28;20032;-65
2022/09/01 10:58:49;;;;;;;1.13;0.50;;;;;;;22.74;37.04;101641.56;6039686;28;20030;-64
2022/09/01 11:01:44;;;;;;;0.70;0.32;;;;;;;23.00;36.62;101635.38;6049229;28;20049;-65
2022/09/01 11:04:39;;;;;;;1.60;0.45;;;;;;;23.27;35.95;101637.09;6033297;28;20025;-65
2022/09/01 11:07:37;;;;;;;2.43;0.50;;;;;;;23.36;35.88;101619.63;6040009;28;20038;-65
2022/09/01 11:10:50;;;;;;;1.52;0.40;;;;;;;24.04;34.82;101628.34;6041903;28;20470;-65
2022/09/01 11:13:48;;;;;;;2.78;0.63;;;;;;;23.85;34.66;101612.94;6044366;28;20030;-64
2022/09/01 11:17:22;;;;;;;2.17;0.70;;;;;;;23.67;35.12;101616.31;6045453;28;20119;-66
2022/09/01 11:20:26;;;;;;;2.58;0.60;;;;;;;24.06;34.12;101615.41;6043416;28;20083;-66
2022/09/01 11:23:29;;;;;;;1.15;0.55;;;;;;;23.84;33.66;101616.69;6064059;28;20062;-65
2022/09/01 11:26:31;;;;;;;3.85;0.50;;;;;;;23.84;34.07;101619.41;6048741;28;20072;-65
2022/09/01 11:29:52;;;;;;;0.95;0.40;;;;;;;23.48;34.19;101622.56;6049224;28;20065;-64
2022/09/01 11:32:58;;;;;;;1.95;0.50;;;;;;;23.86;33.78;101611.91;6048181;28;20042;-66
2022/09/01 11:36:01;;;;;;;0.98;0.57;;;;;;;24.03;34.74;101613.09;6046829;28;20069;-64
2022/09/01 11:39:05;;;;;;;1.20;0.57;;;;;;;23.85;34.61;101596.69;6049815;28;20477;-65
2022/09/01 11:42:02;;;;;;;0.63;0.40;;;;;;;24.21;33.83;101606.03;6048940;28;20025;-65
2022/09/01 11:45:11;;;;;;;1.23;0.60;;;;;;;24.39;34.06;101615.31;6048531;28;20707;-66
2022/09/01 11:48:10;;;;;;;2.35;0.50;;;;;;;23.29;35.11;101602.50;6047823;28;20034;-64
2022/09/01 11:51:06;;;;;;;;;;;;;;;22.59;36.23;101604.84;6047855;28;20030;-65
2022/09/01 11:54:03;;;;;;;0.95;0.50;;;;;;;22.56;36.05;101591.75;6039377;28;19920;-64
2022/09/01 11:57:16;;;;;;;0.73;0.30;;;;;;;22.99;35.64;101593.13;6055837;28;20034;-64
2022/09/01 12:00:13;;;;;;;0.77;0.50;;;;;;;23.50;35.29;101593.41;6043842;28;20081;-65
2022/09/01 12:03:41;;;;;;;1.65;0.40;;;;;;;24.13;34.76;101595.38;6047658;28;20045;-64
2022/09/01 12:06:37;;;;;;;1.73;0.40;;;;;;;24.06;34.64;101585.56;6018292;28;20042;-64
2022/09/01 12:09:38;;;;;;;1.43;0.70;;;;;;;24.78;33.59;101580.72;6046746;28;20049;-66
2022/09/01 12:12:36;;;;;;;1.42;0.50;;;;;;;24.27;33.89;101593.47;6046271;28;20069;-64
2022/09/01 12:15:35;;;;;;;1.35;0.68;;;;;;;24.43;34.10;101578.59;6042977;28;20454;-64
2022/09/01 12:18:34;;;;;;;0.47;0.30;;;;;;;25.14;33.43;101577.34;6044356;28;20040;-65
2022/09/01 12:21:41;;;;;;;2.28;0.77;;;;;;;24.49;33.20;101581.28;6047031;28;20041;-65
2022/09/01 12:24:36;;;;;;;0.38;0.30;;;;;;;23.45;35.47;101585.91;6048285;28;20030;-65
2022/09/01 12:27:32;;;;;;;1.13;0.37;;;;;;;22.82;35.91;101586.44;6034703;28;20050;-64
2022/09/01 12:30:28;;;;;;;2.38;0.63;;;;;;;23.60;35.28;101588.38;6023950;28;20041;-64
2022/09/01 12:33:24;;;;;;;0.95;0.50;;;;;;;24.21;33.02;101553.69;6023950;28;20034;-65
2022/09/01 12:36:29;;;;;;;2.78;0.50;;;;;;;24.25;32.74;101565.72;6040596;28;20053;-64
2022/09/01 12:39:24;;;;;;;3.47;0.50;;;;;;;24.48;32.78;101571.50;6024026;28;20104;-64
2022/09/01 12:42:40;;;;;;;0.93;0.40;;;;;;;23.47;34.26;101573.00;6035849;28;20045;-65
2022/09/01 12:45:41;;;;;;;1.90;0.57;;;;;;;23.31;34.72;101561.72;6047472;28;20038;-65
2022/09/01 12:48:40;;;;;;;2.17;0.65;;;;;;;23.36;34.09;101561.91;6047511;28;20109;-65
2022/09/01 12:51:36;;;;;;;2.03;0.50;;;;;;;23.03;34.89;101559.19;6045713;28;20030;-64
2022/09/01 12:54:31;;;;;;;4.30;0.50;;;;;;;23.73;33.67;101565.88;6047394;28;20050;-63
2022/09/01 12:57:28;;;;;;;0.97;0.43;;;;;;;24.22;32.89;101561.56;6047300;28;20038;-65
2022/09/01 13:00:27;;;;;;;2.47;0.43;;;;;;;24.64;32.06;101557.41;6047010;28;20575;-65
2022/09/01 13:03:22;;;;;;;1.65;0.40;;;;;;;23.78;33.64;101547.09;6047256;28;20109;-65
2022/09/01 13:06:18;;;;;;;0.40;0.40;;;;;;;23.15;34.96;101552.13;6047367;28;20492;-64
2022/09/01 13:09:13;;;;;;;0.93;0.60;;;;;;;22.84;35.48;101562.72;6045961;28;20374;-64
2022/09/01 13:12:19;;;;;;;2.17;0.50;;;;;;;22.85;35.09;101551.69;6046929;28;20084;-63
2022/09/01 13:15:15;;;;;;;;;;;;;;;22.77;34.92;101553.75;6047773;28;20470;-64
2022/09/01 13:18:10;;;;;;;1.20;0.67;;;;;;;22.83;34.53;101545.63;6046896;28;19916;-64
2022/09/01 13:21:06;;;;;;;2.17;0.50;;;;;;;23.38;33.40;101541.75;6032506;28;20045;-66
2022/09/01 13:24:05;;;;;;;2.33;0.50;;;;;;;22.85;33.51;101540.88;6032252;28;20034;-64
2022/09/01 13:27:00;;;;;;;3.40;0.50;;;;;;;22.75;33.54;101534.16;6047017;28;20358;-64
2022/09/01 13:29:56;;;;;;;1.07;0.50;;;;;;;22.58;33.74;101536.41;6046866;28;20120;-64
2022/09/01 13:32:51;;;;;;;2.63;0.70;;;;;;;22.35;33.76;101528.66;6045841;28;20022;-64
2022/09/01 13:35:48;;;;;;;1.13;0.70;;;;;;;22.36;34.10;101534.91;6033542;28;20042;-64
2022/09/01 13:38:43;;;;;;;2.35;0.70;;;;;;;22.42;33.82;101540.31;6046626;28;20097;-64
2022/09/01 13:41:38;;;;;;;1.40;0.40;;;;;;;22.44;34.43;101524.75;6032947;28;20038;-64
2022/09/01 13:44:33;;;;;;;2.57;0.60;;;;;;;22.40;34.29;101531.56;6032238;28;20050;-64
2022/09/01 13:47:29;;;;;;;0.93;0.50;;;;;;;22.46;34.45;101524.53;6044359;28;20042;-64
2022/09/01 13:50:24;;;;;;;0.40;0.30;;;;;;;23.24;33.49;101529.22;6034740;28;20060;-64
2022/09/01 13:53:20;;;;;;;3.35;0.40;;;;;;;23.98;31.79;101504.50;6033276;28;20038;-63
2022/09/01 13:56:16;;;;;;;1.30;0.50;;;;;;;23.75;31.30;101521.28;6040969;28;20401;-64